sensor_id;sensor_type;location;lat;lon;timestamp;temperature;humidity
4635;DHT22;2330;48.158;11.816;2023-08-31T00:01:06;13.30;98.50
4635;DHT22;2330;48.158;11.816;2023-08-31T00:03:33;13.30;98.50
4635;DHT22;2330;48.158;11.816;2023-08-31T00:06:04;13.30;98.50
4635;DHT22;2330;48.158;11.816;2023-08-31T00:08:31;13.20;98.50
4635;DHT22;2330;48.158;11.816;2023-08-31T00:10:59;13.20;98.50
4635;DHT22;2330;48.158;11.816;2023-08-31T00:13:27;13.20;98.50
4635;DHT22;2330;48.158;11.816;2023-08-31T00:15:56;13.20;98.50
4635;DHT22;2330;48.158;11.816;2023-08-31T00:18:25;13.10;98.50
4635;DHT22;2330;48.158;11.816;2023-08-31T00:20:52;13.10;98.50
4635;DHT22;2330;48.158;11.816;2023-08-31T00:23:19;13.20;98.50
4635;DHT22;2330;48.158;11.816;2023-08-31T00:25:48;13.10;98.50
4635;DHT22;2330;48.158;11.816;2023-08-31T00:28:15;13.10;98.50
4635;DHT22;2330;48.158;11.816;2023-08-31T00:30:45;13.00;98.50
4635;DHT22;2330;48.158;11.816;2023-08-31T00:33:13;12.90;98.50
4635;DHT22;2330;48.158;11.816;2023-08-31T00:35:40;12.90;98.50
4635;DHT22;2330;48.158;11.816;2023-08-31T00:38:13;12.90;98.50
4635;DHT22;2330;48.158;11.816;2023-08-31T00:40:44;12.90;98.50
4635;DHT22;2330;48.158;11.816;2023-08-31T00:43:13;12.80;98.50
4635;DHT22;2330;48.158;11.816;2023-08-31T00:45:43;12.80;98.50
4635;DHT22;2330;48.158;11.816;2023-08-31T00:48:11;12.80;98.50
4635;DHT22;2330;48.158;11.816;2023-08-31T00:50:38;12.80;98.50
4635;DHT22;2330;48.158;11.816;2023-08-31T00:53:05;12.80;98.50
4635;DHT22;2330;48.158;11.816;2023-08-31T00:55:32;12.70;98.50
4635;DHT22;2330;48.158;11.816;2023-08-31T00:58:00;12.70;98.50
4635;DHT22;2330;48.158;11.816;2023-08-31T01:06:06;12.70;98.50
4635;DHT22;2330;48.158;11.816;2023-08-31T01:14:16;12.50;98.50
4635;DHT22;2330;48.158;11.816;2023-08-31T01:16:48;12.50;98.50
4635;DHT22;2330;48.158;11.816;2023-08-31T01:19:58;12.50;98.50
4635;DHT22;2330;48.158;11.816;2023-08-31T01:25:09;12.60;98.50
4635;DHT22;2330;48.158;11.816;2023-08-31T01:27:37;12.60;98.50
4635;DHT22;2330;48.158;11.816;2023-08-31T01:30:06;12.50;98.50
4635;DHT22;2330;48.158;11.816;2023-08-31T01:32:33;12.50;98.50
4635;DHT22;2330;48.158;11.816;2023-08-31T01:35:01;12.40;98.50
4635;DHT22;2330;48.158;11.816;2023-08-31T01:43:06;12.30;98.50
4635;DHT22;2330;48.158;11.816;2023-08-31T01:45:33;12.30;98.50
4635;DHT22;2330;48.158;11.816;2023-08-31T01:48:01;12.30;98.50
4635;DHT22;2330;48.158;11.816;2023-08-31T01:50:28;12.30;98.50
4635;DHT22;2330;48.158;11.816;2023-08-31T01:52:54;12.20;98.50
4635;DHT22;2330;48.158;11.816;2023-08-31T01:55:23;12.30;98.50
4635;DHT22;2330;48.158;11.816;2023-08-31T01:57:50;12.30;98.50
4635;DHT22;2330;48.158;11.816;2023-08-31T02:00:18;12.40;98.50
4635;DHT22;2330;48.158;11.816;2023-08-31T02:02:45;12.50;98.50
4635;DHT22;2330;48.158;11.816;2023-08-31T02:05:13;12.50;98.50
4635;DHT22;2330;48.158;11.816;2023-08-31T02:07:40;12.60;98.50
4635;DHT22;2330;48.158;11.816;2023-08-31T02:10:07;12.60;98.50
4635;DHT22;2330;48.158;11.816;2023-08-31T02:12:34;12.70;98.50
4635;DHT22;2330;48.158;11.816;2023-08-31T02:15:04;12.70;98.50
4635;DHT22;2330;48.158;11.816;2023-08-31T02:17:34;12.70;98.50
4635;DHT22;2330;48.158;11.816;2023-08-31T02:20:01;12.80;98.50
4635;DHT22;2330;48.158;11.816;2023-08-31T02:22:31;12.80;98.50
4635;DHT22;2330;48.158;11.816;2023-08-31T02:25:01;12.80;98.50
4635;DHT22;2330;48.158;11.816;2023-08-31T02:27:28;12.80;98.50
4635;DHT22;2330;48.158;11.816;2023-08-31T02:29:54;12.70;98.50
4635;DHT22;2330;48.158;11.816;2023-08-31T02:32:22;12.70;98.50
4635;DHT22;2330;48.158;11.816;2023-08-31T02:34:49;12.70;98.50
4635;DHT22;2330;48.158;11.816;2023-08-31T02:37:17;12.70;98.50
4635;DHT22;2330;48.158;11.816;2023-08-31T02:39:44;12.70;98.50
4635;DHT22;2330;48.158;11.816;2023-08-31T02:42:10;12.70;98.50
4635;DHT22;2330;48.158;11.816;2023-08-31T02:44:37;12.70;98.50
4635;DHT22;2330;48.158;11.816;2023-08-31T02:47:04;12.70;98.50
4635;DHT22;2330;48.158;11.816;2023-08-31T02:49:31;12.70;98.50
4635;DHT22;2330;48.158;11.816;2023-08-31T02:51:57;12.70;98.50
4635;DHT22;2330;48.158;11.816;2023-08-31T02:54:24;12.70;98.50
4635;DHT22;2330;48.158;11.816;2023-08-31T02:56:54;12.80;98.50
4635;DHT22;2330;48.158;11.816;2023-08-31T02:59:21;12.80;98.50
4635;DHT22;2330;48.158;11.816;2023-08-31T03:01:48;12.80;98.50
4635;DHT22;2330;48.158;11.816;2023-08-31T03:04:15;12.90;98.50
4635;DHT22;2330;48.158;11.816;2023-08-31T03:06:42;12.90;98.50
4635;DHT22;2330;48.158;11.816;2023-08-31T03:09:09;12.80;98.50
4635;DHT22;2330;48.158;11.816;2023-08-31T03:11:36;12.80;98.50
4635;DHT22;2330;48.158;11.816;2023-08-31T03:14:03;12.80;98.50
4635;DHT22;2330;48.158;11.816;2023-08-31T03:16:30;12.80;98.50
4635;DHT22;2330;48.158;11.816;2023-08-31T03:18:56;12.80;98.50
4635;DHT22;2330;48.158;11.816;2023-08-31T03:21:23;12.70;98.50
4635;DHT22;2330;48.158;11.816;2023-08-31T03:23:50;12.70;98.50
4635;DHT22;2330;48.158;11.816;2023-08-31T03:26:17;12.70;98.50
4635;DHT22;2330;48.158;11.816;2023-08-31T03:28:44;12.70;98.50
4635;DHT22;2330;48.158;11.816;2023-08-31T03:31:11;12.70;98.50
4635;DHT22;2330;48.158;11.816;2023-08-31T03:33:37;12.80;98.50
4635;DHT22;2330;48.158;11.816;2023-08-31T03:36:05;12.80;98.50
4635;DHT22;2330;48.158;11.816;2023-08-31T03:38:32;12.80;98.50
4635;DHT22;2330;48.158;11.816;2023-08-31T03:40:59;12.80;98.50
4635;DHT22;2330;48.158;11.816;2023-08-31T03:43:26;12.80;98.50
4635;DHT22;2330;48.158;11.816;2023-08-31T03:45:56;12.80;98.50
4635;DHT22;2330;48.158;11.816;2023-08-31T03:48:24;12.80;98.50
4635;DHT22;2330;48.158;11.816;2023-08-31T03:50:55;12.80;98.50
4635;DHT22;2330;48.158;11.816;2023-08-31T03:53:22;12.80;98.50
4635;DHT22;2330;48.158;11.816;2023-08-31T03:55:49;12.80;98.50
4635;DHT22;2330;48.158;11.816;2023-08-31T03:58:16;12.70;98.50
4635;DHT22;2330;48.158;11.816;2023-08-31T04:00:43;12.80;98.50
4635;DHT22;2330;48.158;11.816;2023-08-31T04:03:10;12.80;98.50
4635;DHT22;2330;48.158;11.816;2023-08-31T04:05:37;12.80;98.50
4635;DHT22;2330;48.158;11.816;2023-08-31T04:08:04;12.80;98.50
4635;DHT22;2330;48.158;11.816;2023-08-31T04:10:31;12.90;98.50
4635;DHT22;2330;48.158;11.816;2023-08-31T04:12:59;12.90;98.50
4635;DHT22;2330;48.158;11.816;2023-08-31T04:15:25;12.90;98.50
4635;DHT22;2330;48.158;11.816;2023-08-31T04:17:52;12.90;98.50
4635;DHT22;2330;48.158;11.816;2023-08-31T04:20:19;12.90;98.50
4635;DHT22;2330;48.158;11.816;2023-08-31T04:22:46;12.90;98.50
4635;DHT22;2330;48.158;11.816;2023-08-31T04:25:13;12.90;98.50
4635;DHT22;2330;48.158;11.816;2023-08-31T04:27:39;12.90;98.50
4635;DHT22;2330;48.158;11.816;2023-08-31T04:30:07;12.90;98.50
4635;DHT22;2330;48.158;11.816;2023-08-31T04:32:34;12.90;98.50
4635;DHT22;2330;48.158;11.816;2023-08-31T04:35:05;12.90;98.50
4635;DHT22;2330;48.158;11.816;2023-08-31T04:37:33;12.90;98.50
4635;DHT22;2330;48.158;11.816;2023-08-31T04:40:00;13.00;98.50
4635;DHT22;2330;48.158;11.816;2023-08-31T04:42:27;13.00;98.50
4635;DHT22;2330;48.158;11.816;2023-08-31T04:44:54;13.00;98.50
4635;DHT22;2330;48.158;11.816;2023-08-31T04:47:21;13.00;98.50
4635;DHT22;2330;48.158;11.816;2023-08-31T04:49:48;13.00;98.50
4635;DHT22;2330;48.158;11.816;2023-08-31T04:52:14;13.10;98.50
4635;DHT22;2330;48.158;11.816;2023-08-31T04:54:41;13.00;98.50
4635;DHT22;2330;48.158;11.816;2023-08-31T04:57:08;13.00;98.50
4635;DHT22;2330;48.158;11.816;2023-08-31T04:59:35;13.00;98.50
4635;DHT22;2330;48.158;11.816;2023-08-31T05:02:02;13.00;98.50
4635;DHT22;2330;48.158;11.816;2023-08-31T05:04:29;13.10;98.50
4635;DHT22;2330;48.158;11.816;2023-08-31T05:06:55;13.00;98.50
4635;DHT22;2330;48.158;11.816;2023-08-31T05:09:24;13.00;98.50
4635;DHT22;2330;48.158;11.816;2023-08-31T05:11:51;13.10;98.50
4635;DHT22;2330;48.158;11.816;2023-08-31T05:14:18;13.10;98.50
4635;DHT22;2330;48.158;11.816;2023-08-31T05:16:45;13.10;98.50
4635;DHT22;2330;48.158;11.816;2023-08-31T05:19:12;13.10;98.50
4635;DHT22;2330;48.158;11.816;2023-08-31T05:21:38;13.10;98.50
4635;DHT22;2330;48.158;11.816;2023-08-31T05:24:05;13.20;98.50
4635;DHT22;2330;48.158;11.816;2023-08-31T05:26:32;13.20;98.50
4635;DHT22;2330;48.158;11.816;2023-08-31T05:28:59;13.20;98.50
4635;DHT22;2330;48.158;11.816;2023-08-31T05:31:26;13.20;98.50
4635;DHT22;2330;48.158;11.816;2023-08-31T05:33:55;13.30;98.50
4635;DHT22;2330;48.158;11.816;2023-08-31T05:36:21;13.30;98.50
4635;DHT22;2330;48.158;11.816;2023-08-31T05:38:48;13.30;98.50
4635;DHT22;2330;48.158;11.816;2023-08-31T05:41:17;13.30;98.50
4635;DHT22;2330;48.158;11.816;2023-08-31T05:43:43;13.30;98.50
4635;DHT22;2330;48.158;11.816;2023-08-31T05:46:10;13.30;98.50
4635;DHT22;2330;48.158;11.816;2023-08-31T05:48:37;13.30;98.50
4635;DHT22;2330;48.158;11.816;2023-08-31T05:51:04;13.30;98.50
4635;DHT22;2330;48.158;11.816;2023-08-31T05:53:31;13.40;98.50
4635;DHT22;2330;48.158;11.816;2023-08-31T05:55:58;13.50;98.50
4635;DHT22;2330;48.158;11.816;2023-08-31T05:58:34;13.50;98.50
4635;DHT22;2330;48.158;11.816;2023-08-31T06:01:03;13.60;98.50
4635;DHT22;2330;48.158;11.816;2023-08-31T06:03:30;13.60;98.50
4635;DHT22;2330;48.158;11.816;2023-08-31T06:05:58;13.60;98.50
4635;DHT22;2330;48.158;11.816;2023-08-31T06:08:25;13.70;98.50
4635;DHT22;2330;48.158;11.816;2023-08-31T06:10:52;13.80;98.50
4635;DHT22;2330;48.158;11.816;2023-08-31T06:13:19;13.80;98.50
4635;DHT22;2330;48.158;11.816;2023-08-31T06:15:46;13.90;98.50
4635;DHT22;2330;48.158;11.816;2023-08-31T06:18:14;13.90;98.50
4635;DHT22;2330;48.158;11.816;2023-08-31T06:20:41;13.90;98.50
4635;DHT22;2330;48.158;11.816;2023-08-31T06:23:09;13.90;98.50
4635;DHT22;2330;48.158;11.816;2023-08-31T06:25:37;13.90;98.50
4635;DHT22;2330;48.158;11.816;2023-08-31T06:28:04;14.00;98.50
4635;DHT22;2330;48.158;11.816;2023-08-31T06:30:35;14.00;98.50
4635;DHT22;2330;48.158;11.816;2023-08-31T06:33:02;14.00;98.50
4635;DHT22;2330;48.158;11.816;2023-08-31T06:35:29;14.10;98.50
4635;DHT22;2330;48.158;11.816;2023-08-31T06:37:57;14.10;98.50
4635;DHT22;2330;48.158;11.816;2023-08-31T06:40:24;14.10;98.50
4635;DHT22;2330;48.158;11.816;2023-08-31T06:42:51;14.10;98.50
4635;DHT22;2330;48.158;11.816;2023-08-31T06:45:18;14.10;98.50
4635;DHT22;2330;48.158;11.816;2023-08-31T06:47:45;14.20;98.50
4635;DHT22;2330;48.158;11.816;2023-08-31T06:50:12;14.30;98.50
4635;DHT22;2330;48.158;11.816;2023-08-31T06:52:38;14.30;98.50
4635;DHT22;2330;48.158;11.816;2023-08-31T06:55:08;14.40;98.50
4635;DHT22;2330;48.158;11.816;2023-08-31T06:57:35;14.40;98.50
4635;DHT22;2330;48.158;11.816;2023-08-31T07:00:03;14.40;98.50
4635;DHT22;2330;48.158;11.816;2023-08-31T07:02:30;14.40;98.50
4635;DHT22;2330;48.158;11.816;2023-08-31T07:04:57;14.40;98.50
4635;DHT22;2330;48.158;11.816;2023-08-31T07:07:24;14.40;98.50
4635;DHT22;2330;48.158;11.816;2023-08-31T07:09:51;14.40;98.50
4635;DHT22;2330;48.158;11.816;2023-08-31T07:12:18;14.40;98.50
4635;DHT22;2330;48.158;11.816;2023-08-31T07:14:44;14.40;98.50
4635;DHT22;2330;48.158;11.816;2023-08-31T07:17:11;14.40;98.50
4635;DHT22;2330;48.158;11.816;2023-08-31T07:19:39;14.40;98.50
4635;DHT22;2330;48.158;11.816;2023-08-31T07:22:06;14.40;98.50
4635;DHT22;2330;48.158;11.816;2023-08-31T07:24:33;14.30;98.50
4635;DHT22;2330;48.158;11.816;2023-08-31T07:27:02;14.20;98.50
4635;DHT22;2330;48.158;11.816;2023-08-31T07:29:29;14.20;98.50
4635;DHT22;2330;48.158;11.816;2023-08-31T07:31:57;14.30;98.50
4635;DHT22;2330;48.158;11.816;2023-08-31T07:34:24;14.30;98.50
4635;DHT22;2330;48.158;11.816;2023-08-31T07:36:50;14.40;98.50
4635;DHT22;2330;48.158;11.816;2023-08-31T07:39:17;14.40;98.50
4635;DHT22;2330;48.158;11.816;2023-08-31T07:41:44;14.50;98.50
4635;DHT22;2330;48.158;11.816;2023-08-31T07:44:11;14.60;98.50
4635;DHT22;2330;48.158;11.816;2023-08-31T07:46:38;14.80;98.50
4635;DHT22;2330;48.158;11.816;2023-08-31T07:49:05;14.90;98.50
4635;DHT22;2330;48.158;11.816;2023-08-31T07:51:31;15.10;98.50
4635;DHT22;2330;48.158;11.816;2023-08-31T07:53:59;15.20;98.50
4635;DHT22;2330;48.158;11.816;2023-08-31T07:56:26;15.20;98.50
4635;DHT22;2330;48.158;11.816;2023-08-31T07:58:53;15.30;98.50
4635;DHT22;2330;48.158;11.816;2023-08-31T08:01:20;15.40;98.50
4635;DHT22;2330;48.158;11.816;2023-08-31T08:03:47;15.50;98.50
4635;DHT22;2330;48.158;11.816;2023-08-31T08:06:14;15.60;98.50
4635;DHT22;2330;48.158;11.816;2023-08-31T08:08:40;15.70;98.50
4635;DHT22;2330;48.158;11.816;2023-08-31T08:11:07;15.70;98.50
4635;DHT22;2330;48.158;11.816;2023-08-31T08:13:34;15.70;98.50
4635;DHT22;2330;48.158;11.816;2023-08-31T08:16:01;15.70;98.50
4635;DHT22;2330;48.158;11.816;2023-08-31T08:18:30;15.70;98.50
4635;DHT22;2330;48.158;11.816;2023-08-31T08:20:57;15.80;98.50
4635;DHT22;2330;48.158;11.816;2023-08-31T08:23:24;15.90;98.50
4635;DHT22;2330;48.158;11.816;2023-08-31T08:25:51;16.10;98.50
4635;DHT22;2330;48.158;11.816;2023-08-31T08:28:17;16.20;98.50
4635;DHT22;2330;48.158;11.816;2023-08-31T08:30:44;16.50;98.50
4635;DHT22;2330;48.158;11.816;2023-08-31T08:33:11;16.70;98.50
4635;DHT22;2330;48.158;11.816;2023-08-31T08:35:38;16.80;98.50
4635;DHT22;2330;48.158;11.816;2023-08-31T08:38:05;17.30;98.50
4635;DHT22;2330;48.158;11.816;2023-08-31T08:40:32;17.60;98.50
4635;DHT22;2330;48.158;11.816;2023-08-31T08:43:05;17.50;98.50
4635;DHT22;2330;48.158;11.816;2023-08-31T08:45:37;17.30;98.50
4635;DHT22;2330;48.158;11.816;2023-08-31T08:48:07;17.30;98.50
4635;DHT22;2330;48.158;11.816;2023-08-31T08:50:35;17.10;98.50
4635;DHT22;2330;48.158;11.816;2023-08-31T08:53:04;17.00;98.50
4635;DHT22;2330;48.158;11.816;2023-08-31T08:55:32;16.70;98.50
4635;DHT22;2330;48.158;11.816;2023-08-31T08:57:59;16.50;98.50
4635;DHT22;2330;48.158;11.816;2023-08-31T09:00:27;16.90;98.50
4635;DHT22;2330;48.158;11.816;2023-08-31T09:02:55;17.20;98.50
4635;DHT22;2330;48.158;11.816;2023-08-31T09:05:23;17.30;98.50
4635;DHT22;2330;48.158;11.816;2023-08-31T09:08:09;17.20;98.50
4635;DHT22;2330;48.158;11.816;2023-08-31T09:10:44;17.10;98.50
4635;DHT22;2330;48.158;11.816;2023-08-31T09:13:12;17.20;98.50
4635;DHT22;2330;48.158;11.816;2023-08-31T09:15:49;17.10;98.50
4635;DHT22;2330;48.158;11.816;2023-08-31T09:20:51;16.90;98.50
4635;DHT22;2330;48.158;11.816;2023-08-31T09:23:18;16.90;98.50
4635;DHT22;2330;48.158;11.816;2023-08-31T09:25:50;17.00;98.50
4635;DHT22;2330;48.158;11.816;2023-08-31T09:28:19;17.10;98.50
4635;DHT22;2330;48.158;11.816;2023-08-31T09:30:47;17.20;98.50
4635;DHT22;2330;48.158;11.816;2023-08-31T09:33:16;16.90;98.50
4635;DHT22;2330;48.158;11.816;2023-08-31T09:35:50;16.80;98.50
4635;DHT22;2330;48.158;11.816;2023-08-31T09:38:18;16.70;98.50
4635;DHT22;2330;48.158;11.816;2023-08-31T09:40:45;16.50;98.50
4635;DHT22;2330;48.158;11.816;2023-08-31T09:43:19;16.50;98.50
4635;DHT22;2330;48.158;11.816;2023-08-31T09:45:47;16.50;98.50
4635;DHT22;2330;48.158;11.816;2023-08-31T09:48:15;16.40;98.50
4635;DHT22;2330;48.158;11.816;2023-08-31T09:50:44;16.60;98.50
4635;DHT22;2330;48.158;11.816;2023-08-31T09:53:12;16.90;98.50
4635;DHT22;2330;48.158;11.816;2023-08-31T09:55:40;16.80;98.50
4635;DHT22;2330;48.158;11.816;2023-08-31T09:58:08;17.00;98.50
4635;DHT22;2330;48.158;11.816;2023-08-31T10:00:42;17.20;98.50
4635;DHT22;2330;48.158;11.816;2023-08-31T10:03:10;17.30;98.50
4635;DHT22;2330;48.158;11.816;2023-08-31T10:05:44;17.60;98.50
4635;DHT22;2330;48.158;11.816;2023-08-31T10:08:12;17.80;98.50
4635;DHT22;2330;48.158;11.816;2023-08-31T10:10:40;17.70;98.50
4635;DHT22;2330;48.158;11.816;2023-08-31T10:13:07;17.60;98.50
4635;DHT22;2330;48.158;11.816;2023-08-31T10:15:36;17.90;98.50
4635;DHT22;2330;48.158;11.816;2023-08-31T10:18:04;18.00;98.50
4635;DHT22;2330;48.158;11.816;2023-08-31T10:20:32;18.10;98.50
4635;DHT22;2330;48.158;11.816;2023-08-31T10:23:04;17.90;98.50
4635;DHT22;2330;48.158;11.816;2023-08-31T10:28:23;17.70;98.50
4635;DHT22;2330;48.158;11.816;2023-08-31T10:31:07;17.50;98.50
4635;DHT22;2330;48.158;11.816;2023-08-31T10:33:41;17.50;98.50
4635;DHT22;2330;48.158;11.816;2023-08-31T10:36:19;17.60;98.50
4635;DHT22;2330;48.158;11.816;2023-08-31T10:38:59;17.70;98.50
4635;DHT22;2330;48.158;11.816;2023-08-31T10:41:35;17.70;98.50
4635;DHT22;2330;48.158;11.816;2023-08-31T10:44:26;17.60;98.50
4635;DHT22;2330;48.158;11.816;2023-08-31T10:46:53;17.50;98.50
4635;DHT22;2330;48.158;11.816;2023-08-31T10:49:22;17.30;98.50
4635;DHT22;2330;48.158;11.816;2023-08-31T10:51:57;17.30;98.50
4635;DHT22;2330;48.158;11.816;2023-08-31T10:54:25;17.30;98.50
4635;DHT22;2330;48.158;11.816;2023-08-31T10:56:52;17.30;98.50
4635;DHT22;2330;48.158;11.816;2023-08-31T10:59:24;17.30;98.50
4635;DHT22;2330;48.158;11.816;2023-08-31T11:04:20;17.40;98.50
4635;DHT22;2330;48.158;11.816;2023-08-31T11:06:47;17.50;98.50
4635;DHT22;2330;48.158;11.816;2023-08-31T11:09:20;17.50;98.50
4635;DHT22;2330;48.158;11.816;2023-08-31T11:11:48;17.50;98.50
4635;DHT22;2330;48.158;11.816;2023-08-31T11:14:17;17.40;98.50
4635;DHT22;2330;48.158;11.816;2023-08-31T11:16:44;17.30;98.50
4635;DHT22;2330;48.158;11.816;2023-08-31T11:19:11;17.20;98.50
4635;DHT22;2330;48.158;11.816;2023-08-31T11:21:38;17.10;98.50
4635;DHT22;2330;48.158;11.816;2023-08-31T11:24:07;16.90;98.50
4635;DHT22;2330;48.158;11.816;2023-08-31T11:26:34;16.60;98.50
4635;DHT22;2330;48.158;11.816;2023-08-31T11:29:01;16.40;98.50
4635;DHT22;2330;48.158;11.816;2023-08-31T11:31:28;16.20;98.50
4635;DHT22;2330;48.158;11.816;2023-08-31T11:33:54;16.10;98.50
4635;DHT22;2330;48.158;11.816;2023-08-31T11:36:22;16.00;98.50
4635;DHT22;2330;48.158;11.816;2023-08-31T11:38:49;15.90;98.50
4635;DHT22;2330;48.158;11.816;2023-08-31T11:41:17;15.70;98.50
4635;DHT22;2330;48.158;11.816;2023-08-31T11:43:44;15.70;98.50
4635;DHT22;2330;48.158;11.816;2023-08-31T11:46:12;15.80;98.50
4635;DHT22;2330;48.158;11.816;2023-08-31T11:48:39;16.00;98.50
4635;DHT22;2330;48.158;11.816;2023-08-31T11:51:07;16.10;98.50
4635;DHT22;2330;48.158;11.816;2023-08-31T11:53:34;16.30;98.50
4635;DHT22;2330;48.158;11.816;2023-08-31T11:56:04;16.40;98.50
4635;DHT22;2330;48.158;11.816;2023-08-31T11:58:31;16.40;98.50
4635;DHT22;2330;48.158;11.816;2023-08-31T12:00:58;16.40;98.50
4635;DHT22;2330;48.158;11.816;2023-08-31T12:03:27;16.70;98.50
4635;DHT22;2330;48.158;11.816;2023-08-31T12:06:17;16.90;98.50
4635;DHT22;2330;48.158;11.816;2023-08-31T12:08:47;17.20;98.50
4635;DHT22;2330;48.158;11.816;2023-08-31T12:11:14;17.40;98.50
4635;DHT22;2330;48.158;11.816;2023-08-31T12:13:41;17.80;98.50
4635;DHT22;2330;48.158;11.816;2023-08-31T12:16:12;18.00;98.50
4635;DHT22;2330;48.158;11.816;2023-08-31T12:18:39;18.20;98.50
4635;DHT22;2330;48.158;11.816;2023-08-31T12:21:06;18.80;98.50
4635;DHT22;2330;48.158;11.816;2023-08-31T12:23:33;19.00;98.50
4635;DHT22;2330;48.158;11.816;2023-08-31T12:26:01;19.10;98.50
4635;DHT22;2330;48.158;11.816;2023-08-31T12:28:29;18.70;98.50
4635;DHT22;2330;48.158;11.816;2023-08-31T12:30:56;18.50;98.50
4635;DHT22;2330;48.158;11.816;2023-08-31T12:33:23;18.50;98.50
4635;DHT22;2330;48.158;11.816;2023-08-31T12:35:51;19.00;98.50
4635;DHT22;2330;48.158;11.816;2023-08-31T12:38:18;19.40;98.10
4635;DHT22;2330;48.158;11.816;2023-08-31T12:40:46;19.30;97.40
4635;DHT22;2330;48.158;11.816;2023-08-31T12:43:13;18.90;97.80
4635;DHT22;2330;48.158;11.816;2023-08-31T12:45:40;19.20;98.10
4635;DHT22;2330;48.158;11.816;2023-08-31T12:48:07;19.50;98.10
4635;DHT22;2330;48.158;11.816;2023-08-31T12:50:34;19.60;97.00
4635;DHT22;2330;48.158;11.816;2023-08-31T12:53:00;19.90;97.30
4635;DHT22;2330;48.158;11.816;2023-08-31T12:55:27;19.70;96.20
4635;DHT22;2330;48.158;11.816;2023-08-31T12:57:54;19.30;97.00
4635;DHT22;2330;48.158;11.816;2023-08-31T13:00:21;19.10;97.90
4635;DHT22;2330;48.158;11.816;2023-08-31T13:02:48;19.20;98.50
4635;DHT22;2330;48.158;11.816;2023-08-31T13:05:17;19.30;98.20
4635;DHT22;2330;48.158;11.816;2023-08-31T13:07:44;19.00;97.70
4635;DHT22;2330;48.158;11.816;2023-08-31T13:10:10;18.90;98.20
4635;DHT22;2330;48.158;11.816;2023-08-31T13:12:37;18.80;98.20
4635;DHT22;2330;48.158;11.816;2023-08-31T13:15:04;18.90;97.60
4635;DHT22;2330;48.158;11.816;2023-08-31T13:17:32;19.20;96.00
4635;DHT22;2330;48.158;11.816;2023-08-31T13:19:59;19.30;95.90
4635;DHT22;2330;48.158;11.816;2023-08-31T13:22:26;19.70;94.90
4635;DHT22;2330;48.158;11.816;2023-08-31T13:24:52;19.90;94.50
4635;DHT22;2330;48.158;11.816;2023-08-31T13:27:19;20.00;93.90
4635;DHT22;2330;48.158;11.816;2023-08-31T13:29:46;20.30;93.20
4635;DHT22;2330;48.158;11.816;2023-08-31T13:32:13;20.50;93.40
4635;DHT22;2330;48.158;11.816;2023-08-31T13:34:40;20.10;92.00
4635;DHT22;2330;48.158;11.816;2023-08-31T13:37:07;19.80;93.10
4635;DHT22;2330;48.158;11.816;2023-08-31T13:39:35;19.30;93.70
4635;DHT22;2330;48.158;11.816;2023-08-31T13:42:06;18.70;95.40
4635;DHT22;2330;48.158;11.816;2023-08-31T13:44:33;18.50;97.40
4635;DHT22;2330;48.158;11.816;2023-08-31T13:47:00;18.60;96.50
4635;DHT22;2330;48.158;11.816;2023-08-31T13:49:30;18.50;95.90
4635;DHT22;2330;48.158;11.816;2023-08-31T13:51:56;18.50;95.20
4635;DHT22;2330;48.158;11.816;2023-08-31T13:54:23;18.50;97.40
4635;DHT22;2330;48.158;11.816;2023-08-31T13:56:51;18.70;98.50
4635;DHT22;2330;48.158;11.816;2023-08-31T13:59:18;18.90;98.50
4635;DHT22;2330;48.158;11.816;2023-08-31T14:01:45;19.20;96.40
4635;DHT22;2330;48.158;11.816;2023-08-31T14:04:11;19.50;95.80
4635;DHT22;2330;48.158;11.816;2023-08-31T14:06:38;19.60;96.40
4635;DHT22;2330;48.158;11.816;2023-08-31T14:09:05;20.00;96.10
4635;DHT22;2330;48.158;11.816;2023-08-31T14:11:32;20.30;96.50
4635;DHT22;2330;48.158;11.816;2023-08-31T14:14:04;20.40;92.40
4635;DHT22;2330;48.158;11.816;2023-08-31T14:16:32;20.10;91.50
4635;DHT22;2330;48.158;11.816;2023-08-31T14:19:00;20.00;92.50
4635;DHT22;2330;48.158;11.816;2023-08-31T14:21:27;20.00;91.40
4635;DHT22;2330;48.158;11.816;2023-08-31T14:23:54;20.10;92.70
4635;DHT22;2330;48.158;11.816;2023-08-31T14:26:24;20.40;92.50
4635;DHT22;2330;48.158;11.816;2023-08-31T14:28:51;20.40;91.30
4635;DHT22;2330;48.158;11.816;2023-08-31T14:31:19;20.30;91.20
4635;DHT22;2330;48.158;11.816;2023-08-31T14:33:46;20.10;89.70
4635;DHT22;2330;48.158;11.816;2023-08-31T14:36:15;20.00;90.10
4635;DHT22;2330;48.158;11.816;2023-08-31T14:38:42;19.60;90.10
4635;DHT22;2330;48.158;11.816;2023-08-31T14:41:09;19.20;91.50
4635;DHT22;2330;48.158;11.816;2023-08-31T14:43:35;19.30;92.40
4635;DHT22;2330;48.158;11.816;2023-08-31T14:46:03;19.20;92.20
4635;DHT22;2330;48.158;11.816;2023-08-31T14:48:31;19.10;92.60
4635;DHT22;2330;48.158;11.816;2023-08-31T14:50:58;19.00;92.40
4635;DHT22;2330;48.158;11.816;2023-08-31T14:53:27;19.00;93.50
4635;DHT22;2330;48.158;11.816;2023-08-31T14:55:54;19.30;91.70
4635;DHT22;2330;48.158;11.816;2023-08-31T14:58:21;19.20;90.80
4635;DHT22;2330;48.158;11.816;2023-08-31T15:00:47;19.40;91.40
4635;DHT22;2330;48.158;11.816;2023-08-31T15:03:14;19.60;90.10
4635;DHT22;2330;48.158;11.816;2023-08-31T15:05:42;19.80;90.00
4635;DHT22;2330;48.158;11.816;2023-08-31T15:08:09;19.80;90.70
4635;DHT22;2330;48.158;11.816;2023-08-31T15:10:38;19.50;89.30
4635;DHT22;2330;48.158;11.816;2023-08-31T15:13:06;19.40;91.10
4635;DHT22;2330;48.158;11.816;2023-08-31T15:15:33;19.30;91.00
4635;DHT22;2330;48.158;11.816;2023-08-31T15:18:00;19.20;92.30
4635;DHT22;2330;48.158;11.816;2023-08-31T15:20:27;19.20;92.30
4635;DHT22;2330;48.158;11.816;2023-08-31T15:22:54;19.00;91.20
4635;DHT22;2330;48.158;11.816;2023-08-31T15:25:21;19.00;91.70
4635;DHT22;2330;48.158;11.816;2023-08-31T15:27:48;19.00;93.60
4635;DHT22;2330;48.158;11.816;2023-08-31T15:30:15;19.10;93.20
4635;DHT22;2330;48.158;11.816;2023-08-31T15:32:42;19.20;93.00
4635;DHT22;2330;48.158;11.816;2023-08-31T15:35:09;19.00;91.60
4635;DHT22;2330;48.158;11.816;2023-08-31T15:37:36;18.80;91.70
4635;DHT22;2330;48.158;11.816;2023-08-31T15:40:02;18.70;92.80
4635;DHT22;2330;48.158;11.816;2023-08-31T15:42:29;18.70;93.00
4635;DHT22;2330;48.158;11.816;2023-08-31T15:44:56;18.60;92.90
4635;DHT22;2330;48.158;11.816;2023-08-31T15:47:23;18.60;92.90
4635;DHT22;2330;48.158;11.816;2023-08-31T15:49:51;18.60;91.90
4635;DHT22;2330;48.158;11.816;2023-08-31T15:52:18;18.30;91.70
4635;DHT22;2330;48.158;11.816;2023-08-31T15:54:45;18.30;91.80
4635;DHT22;2330;48.158;11.816;2023-08-31T15:57:12;18.20;92.30
4635;DHT22;2330;48.158;11.816;2023-08-31T15:59:39;18.20;92.50
4635;DHT22;2330;48.158;11.816;2023-08-31T16:02:06;18.10;92.30
4635;DHT22;2330;48.158;11.816;2023-08-31T16:04:33;18.10;92.60
4635;DHT22;2330;48.158;11.816;2023-08-31T16:07:01;18.10;92.80
4635;DHT22;2330;48.158;11.816;2023-08-31T16:09:29;18.10;92.90
4635;DHT22;2330;48.158;11.816;2023-08-31T16:11:56;18.10;91.60
4635;DHT22;2330;48.158;11.816;2023-08-31T16:14:23;18.00;91.30
4635;DHT22;2330;48.158;11.816;2023-08-31T16:16:50;17.90;92.20